Time;durP1;ratioP1;P1;durP2;ratioP2;P2;SDS_P1;SDS_P2;PMS_P1;PMS_P2;Temp;Humidity;BMP_temperature;BMP_pressure;BME280_temperature;BME280_humidity;BME280_pressure;Samples;Min_cycle;Max_cycle;Signal;HPM_P1;HPM_P2
2021/08/14 11:55:41;;;;;;;14.93;9.02;;;21.60;99.90;;;;;;5070768;28;20545;-70
2021/08/14 11:58:07;;;;;;;7.88;5.00;;;21.70;99.90;;;;;;5070649;28;20176;-68
2021/08/14 12:00:37;;;;;;;7.13;3.92;;;21.70;99.90;;;;;;5069383;28;20208;-68
2021/08/14 12:03:12;;;;;;;7.38;4.00;;;21.80;99.90;;;;;;5070615;28;20246;-68
2021/08/14 12:05:43;;;;;;;8.70;3.13;;;21.90;99.90;;;;;;5069273;28;20266;-68
2021/08/14 12:08:15;;;;;;;4.82;3.08;;;21.90;99.90;;;;;;5070377;28;20172;-70
2021/08/14 12:10:41;;;;;;;9.07;4.45;;;21.90;99.90;;;;;;5069218;28;20252;-70
2021/08/14 12:13:07;;;;;;;3.45;3.13;;;22.00;99.90;;;;;;5070402;28;20168;-69
2021/08/14 12:15:43;;;;;;;7.03;4.78;;;22.00;99.90;;;;;;5070281;28;20287;-68
2021/08/14 12:18:10;;;;;;;5.88;4.32;;;22.10;99.90;;;;;;5050382;28;20508;-68
2021/08/14 12:20:40;;;;;;;10.35;5.95;;;22.10;99.90;;;;;;5050258;28;20196;-68
2021/08/14 12:23:27;;;;;;;5.15;3.88;;;22.30;99.90;;;;;;5050243;28;20230;-68
2021/08/14 12:26:11;;;;;;;4.57;3.00;;;22.30;99.90;;;;;;5050258;28;20160;-68
2021/08/14 12:28:41;;;;;;;8.55;3.72;;;22.40;99.90;;;;;;5050143;28;20206;-70
2021/08/14 12:31:44;;;;;;;3.60;3.00;;;22.40;99.90;;;;;;5050068;28;20168;-68
2021/08/14 12:34:21;;;;;;;5.68;3.20;;;22.50;99.90;;;;;;5049330;28;20213;-68
2021/08/14 12:36:58;;;;;;;4.70;4.15;;;22.50;99.90;;;;;;5049996;28;20160;-68
2021/08/14 12:39:42;;;;;;;5.90;4.10;;;22.60;99.90;;;;;;5049856;28;20164;-68
2021/08/14 12:42:20;;;;;;;8.30;3.63;;;22.60;99.90;;;;;;5048717;28;20169;-69
2021/08/14 12:44:46;;;;;;;3.90;2.80;;;22.60;99.90;;;;;;5049954;28;20164;-69
2021/08/14 12:47:12;;;;;;;7.85;3.40;;;22.70;99.90;;;;;;5048489;28;20177;-69
2021/08/14 12:49:38;;;;;;;2.65;2.45;;;22.80;99.90;;;;;;5049732;28;20175;-69
2021/08/14 12:52:04;;;;;;;8.45;3.33;;;22.80;99.90;;;;;;5049656;28;20187;-69
2021/08/14 12:54:32;;;;;;;7.85;3.70;;;22.90;99.90;;;;;;5049407;28;20220;-69
2021/08/14 12:57:06;;;;;;;2.88;2.67;;;23.00;99.90;;;;;;5049599;28;20303;-69
2021/08/14 12:59:33;;;;;;;3.15;2.45;;;23.20;99.90;;;;;;5049736;28;20160;-69
2021/08/14 13:02:03;;;;;;;11.90;3.47;;;23.30;99.90;;;;;;5049460;28;20222;-69
2021/08/14 13:04:28;;;;;;;5.32;2.65;;;23.40;99.90;;;;;;5049371;28;20165;-69
2021/08/14 13:06:54;;;;;;;3.20;2.67;;;23.50;99.90;;;;;;5037098;28;20169;-69
2021/08/14 13:09:19;;;;;;;5.32;2.63;;;23.60;99.90;;;;;;5036117;28;20291;-69
2021/08/14 13:11:45;;;;;;;3.50;3.15;;;23.40;99.90;;;;;;5036115;28;20508;-69
2021/08/14 13:14:11;;;;;;;3.90;2.60;;;23.40;99.90;;;;;;5035949;28;20228;-69
2021/08/14 13:16:36;;;;;;;7.40;2.80;;;23.50;99.90;;;;;;5034629;28;20200;-69
2021/08/14 13:19:02;;;;;;;3.22;2.22;;;23.50;99.90;;;;;;5035922;28;20161;-69
2021/08/14 13:21:29;;;;;;;3.95;2.33;;;23.60;99.90;;;;;;5035872;28;20180;-69
2021/08/14 13:23:54;;;;;;;3.10;2.50;;;23.70;99.90;;;;;;5035842;28;20259;-69
2021/08/14 13:26:20;;;;;;;2.80;2.60;;;23.80;99.90;;;;;;5034538;28;20285;-69
2021/08/14 13:28:45;;;;;;;2.85;2.45;;;24.00;99.90;;;;;;5035738;28;20172;-69
2021/08/14 13:31:14;;;;;;;3.90;2.90;;;24.10;99.90;;;;;;5035709;28;20250;-69
2021/08/14 13:33:39;;;;;;;5.32;2.45;;;24.10;99.90;;;;;;5035499;28;20185;-69
2021/08/14 13:36:05;;;;;;;4.45;2.70;;;24.00;99.90;;;;;;5035600;28;20231;-69
2021/08/14 13:38:32;;;;;;;2.95;2.55;;;24.20;99.90;;;;;;5035519;28;20204;-69
2021/08/14 13:40:58;;;;;;;4.60;2.70;;;24.30;99.90;;;;;;5035564;28;20176;-69
2021/08/14 13:43:24;;;;;;;3.88;2.75;;;24.30;99.90;;;;;;5035490;28;20549;-69
2021/08/14 13:45:49;;;;;;;2.65;2.40;;;24.50;99.90;;;;;;5035455;28;20177;-69
2021/08/14 13:48:15;;;;;;;3.25;2.65;;;24.70;99.90;;;;;;5035329;28;20165;-69
2021/08/14 13:50:42;;;;;;;5.93;2.50;;;24.70;99.90;;;;;;5035391;28;20169;-69
2021/08/14 13:53:08;;;;;;;3.17;2.55;;;24.60;99.90;;;;;;5035280;28;20649;-69
2021/08/14 13:55:33;;;;;;;3.13;2.60;;;24.70;99.90;;;;;;5035013;28;20225;-69
2021/08/14 13:57:59;;;;;;;6.18;3.08;;;24.80;99.90;;;;;;5035232;28;20202;-69
2021/08/14 14:00:24;;;;;;;3.30;2.85;;;25.00;99.90;;;;;;5035211;28;20165;-69
2021/08/14 14:02:50;;;;;;;3.28;2.20;;;25.00;99.90;;;;;;5035152;28;20206;-69
2021/08/14 14:05:16;;;;;;;6.38;2.33;;;25.00;99.90;;;;;;5035056;28;20223;-69
2021/08/14 14:07:44;;;;;;;5.97;2.67;;;24.90;99.90;;;;;;5035048;28;20191;-69
2021/08/14 14:10:10;;;;;;;2.95;2.20;;;24.60;99.90;;;;;;5035018;28;20252;-68
2021/08/14 14:12:36;;;;;;;5.85;2.88;;;24.60;99.90;;;;;;5034957;28;20205;-69
2021/08/14 14:15:04;;;;;;;5.00;2.42;;;24.70;99.90;;;;;;5034760;28;20259;-68
2021/08/14 14:17:30;;;;;;;5.43;4.50;;;24.90;99.90;;;;;;5033721;28;20189;-69
2021/08/14 14:19:56;;;;;;;3.15;2.75;;;25.20;99.90;;;;;;5034838;28;20226;-69
2021/08/14 14:22:21;;;;;;;7.38;2.70;;;25.30;99.90;;;;;;5034758;28;20166;-69
2021/08/14 14:24:47;;;;;;;3.85;2.65;;;25.20;99.90;;;;;;5034669;28;20177;-69
2021/08/14 14:27:12;;;;;;;3.33;2.50;;;25.20;99.90;;;;;;5034642;28;20181;-69
2021/08/14 14:29:38;;;;;;;3.13;2.38;;;25.30;99.90;;;;;;5034492;28;20626;-69
2021/08/14 14:32:04;;;;;;;2.60;2.40;;;25.50;99.90;;;;;;5034428;28;20177;-69
2021/08/14 14:34:30;;;;;;;3.60;2.58;;;25.80;99.90;;;;;;5033104;28;20662;-69
2021/08/14 14:36:56;;;;;;;2.88;2.67;;;25.80;99.90;;;;;;5034444;28;20176;-69
2021/08/14 14:39:22;;;;;;;4.00;2.80;;;26.00;99.90;;;;;;5034337;28;20189;-69
2021/08/14 14:41:47;;;;;;;8.68;3.10;;;26.10;99.90;;;;;;5034303;28;20598;-69
2021/08/14 14:44:13;;;;;;;3.42;2.40;;;25.90;99.90;;;;;;5034263;28;20165;-69
2021/08/14 14:46:39;;;;;;;3.33;2.55;;;26.10;99.90;;;;;;5034210;28;20638;-69
2021/08/14 14:49:05;;;;;;;3.20;2.90;;;26.20;99.90;;;;;;5032931;28;20185;-69
2021/08/14 14:51:32;;;;;;;4.47;2.70;;;26.20;99.90;;;;;;5034163;28;20184;-69
2021/08/14 14:53:58;;;;;;;18.60;3.40;;;26.20;99.90;;;;;;5033850;28;20221;-69
2021/08/14 14:56:23;;;;;;;4.65;2.50;;;26.10;99.90;;;;;;5034062;28;20520;-69
2021/08/14 14:58:49;;;;;;;4.18;2.63;;;25.80;99.90;;;;;;5034004;28;20170;-69
2021/08/14 15:01:15;;;;;;;6.80;2.80;;;25.80;99.90;;;;;;5033967;28;20232;-69
2021/08/14 15:03:40;;;;;;;3.88;2.35;;;26.10;99.90;;;;;;5034036;28;20170;-69
2021/08/14 15:06:06;;;;;;;5.28;3.30;;;26.10;99.90;;;;;;5033948;28;20208;-69
2021/08/14 15:08:31;;;;;;;4.43;2.90;;;26.20;99.90;;;;;;5033928;28;20201;-69
2021/08/14 15:10:57;;;;;;;2.88;2.67;;;26.00;99.90;;;;;;5033849;28;20173;-69
2021/08/14 15:13:24;;;;;;;4.35;3.08;;;26.10;99.90;;;;;;5032393;28;20532;-69
2021/08/14 15:15:50;;;;;;;7.93;3.05;;;26.10;99.90;;;;;;5033660;28;20558;-69
2021/08/14 15:18:15;;;;;;;3.78;2.53;;;26.20;99.90;;;;;;5033747;28;20218;-69
2021/08/14 15:20:41;;;;;;;6.15;2.70;;;26.10;99.90;;;;;;5032428;28;20173;-69
2021/08/14 15:23:07;;;;;;;4.35;2.78;;;26.00;99.90;;;;;;5033713;28;20653;-69
2021/08/14 15:25:33;;;;;;;3.75;3.05;;;25.80;99.90;;;;;;5032342;28;20527;-69
2021/08/14 15:27:59;;;;;;;4.82;3.03;;;25.60;99.90;;;;;;5033545;28;20169;-69
2021/08/14 15:30:24;;;;;;;6.10;3.63;;;25.60;99.90;;;;;;5033385;28;20177;-69
2021/08/14 15:32:50;;;;;;;6.57;2.97;;;25.80;99.90;;;;;;5033484;28;20531;-69
2021/08/14 15:35:16;;;;;;;4.32;2.85;;;25.70;99.90;;;;;;5033378;28;20204;-69
2021/08/14 15:37:41;;;;;;;3.58;3.20;;;25.50;99.90;;;;;;5033424;28;20173;-69
2021/08/14 15:40:08;;;;;;;3.30;2.88;;;25.40;99.90;;;;;;5033341;28;20165;-69
2021/08/14 15:42:33;;;;;;;6.70;3.20;;;25.50;99.90;;;;;;5033358;28;20192;-69
2021/08/14 15:44:59;;;;;;;45.20;28.27;;;25.50;99.90;;;;;;5033346;28;20627;-69
2021/08/14 15:47:24;;;;;;;9.82;5.88;;;25.80;99.90;;;;;;5033339;28;20173;-69
2021/08/14 15:49:50;;;;;;;27.23;16.92;;;25.80;99.90;;;;;;5033172;28;20196;-69
2021/08/14 15:52:16;;;;;;;15.80;8.93;;;25.80;99.90;;;;;;5033302;28;20173;-69
2021/08/14 15:54:41;;;;;;;14.40;9.15;;;25.70;99.90;;;;;;5033011;28;20289;-69
2021/08/14 15:57:07;;;;;;;9.57;7.68;;;25.80;99.90;;;;;;5033236;28;20165;-69
2021/08/14 15:59:33;;;;;;;3.75;2.83;;;25.90;99.90;;;;;;5033225;28;20169;-69
2021/08/14 16:02:00;;;;;;;9.43;3.35;;;25.90;99.90;;;;;;5033280;28;20176;-69
2021/08/14 16:04:26;;;;;;;18.95;9.05;;;26.00;99.90;;;;;;5033194;28;20169;-69
2021/08/14 16:06:52;;;;;;;9.80;4.07;;;25.80;99.90;;;;;;5033154;28;20172;-69
2021/08/14 16:09:17;;;;;;;28.65;17.42;;;25.70;99.90;;;;;;5033079;28;20244;-69
2021/08/14 16:11:43;;;;;;;3.50;3.20;;;25.80;99.90;;;;;;5033131;28;20169;-69
2021/08/14 16:14:09;;;;;;;9.75;6.10;;;25.60;99.90;;;;;;5033098;28;20204;-68
2021/08/14 16:16:35;;;;;;;5.55;3.10;;;25.70;99.90;;;;;;5033070;28;20165;-69
2021/08/14 16:19:01;;;;;;;5.57;4.65;;;25.80;99.90;;;;;;5033081;28;20172;-69
2021/08/14 16:21:26;;;;;;;4.35;2.90;;;25.90;99.90;;;;;;5033069;28;20178;-69
2021/08/14 16:23:52;;;;;;;9.13;5.95;;;26.00;99.90;;;;;;5033083;28;20173;-69
2021/08/14 16:26:18;;;;;;;7.18;6.28;;;26.00;99.90;;;;;;5031820;28;20219;-69
2021/08/14 16:28:43;;;;;;;5.22;4.55;;;26.10;99.90;;;;;;5032969;28;20177;-69
2021/08/14 16:31:09;;;;;;;5.80;3.35;;;26.10;99.90;;;;;;5031715;28;20272;-69
2021/08/14 16:33:34;;;;;;;8.32;4.75;;;26.30;99.90;;;;;;5032883;28;20173;-69
2021/08/14 16:36:00;;;;;;;3.25;2.85;;;26.20;99.90;;;;;;5032944;28;20170;-69
2021/08/14 16:38:26;;;;;;;6.65;3.40;;;26.10;99.90;;;;;;5032887;28;20616;-68
2021/08/14 16:40:53;;;;;;;5.90;3.33;;;26.10;99.90;;;;;;5033964;28;20203;-68
2021/08/14 16:43:20;;;;;;;4.43;3.75;;;26.10;99.90;;;;;;5036586;28;20161;-68
2021/08/14 16:45:46;;;;;;;6.25;3.80;;;26.00;99.90;;;;;;5036582;28;20661;-69
2021/08/14 16:48:12;;;;;;;7.43;3.55;;;25.90;99.90;;;;;;5036628;28;20514;-69
2021/08/14 16:50:41;;;;;;;3.38;2.75;;;25.70;99.90;;;;;;5036540;28;20176;-69
2021/08/14 16:53:08;;;;;;;6.38;3.88;;;25.60;99.90;;;;;;5036270;28;20177;-69
2021/08/14 16:55:34;;;;;;;6.82;3.45;;;25.40;99.90;;;;;;5036056;28;20224;-69
2021/08/14 16:58:00;;;;;;;3.92;3.30;;;25.40;99.90;;;;;;5036314;28;20517;-69
2021/08/14 17:00:26;;;;;;;3.55;3.08;;;25.50;99.90;;;;;;5036295;28;20170;-68
2021/08/14 17:02:52;;;;;;;4.55;2.92;;;25.50;99.90;;;;;;5036262;28;20179;-69
2021/08/14 17:05:18;;;;;;;4.43;3.47;;;;;;;;;;5034809;28;20196;-69
2021/08/14 17:07:45;;;;;;;4.60;3.42;;;;;;;;;;5036040;28;20272;-69
2021/08/14 17:10:15;;;;;;;6.50;3.28;;;24.90;99.90;;;;;;5035882;28;20165;-69
2021/08/14 17:12:41;;;;;;;4.32;2.72;;;25.30;99.90;;;;;;5035850;28;20173;-69
2021/08/14 17:15:08;;;;;;;4.53;2.85;;;25.10;99.90;;;;;;5035803;28;20243;-69
2021/08/14 17:17:34;;;;;;;6.82;2.90;;;25.00;99.90;;;;;;5035782;28;20171;-69
2021/08/14 17:19:59;;;;;;;3.53;3.05;;;24.90;99.90;;;;;;5035849;28;20516;-69
2021/08/14 17:22:25;;;;;;;3.45;2.90;;;24.80;99.90;;;;;;5035849;28;20169;-69
2021/08/14 17:24:52;;;;;;;5.07;3.20;;;24.70;99.90;;;;;;5035820;28;20565;-69
2021/08/14 17:27:19;;;;;;;5.18;3.08;;;24.70;99.90;;;;;;5035782;28;20642;-68
2021/08/14 17:29:45;;;;;;;5.32;3.45;;;24.60;99.90;;;;;;5035731;28;20260;-68
2021/08/14 17:32:11;;;;;;;4.38;3.25;;;24.40;99.90;;;;;;5034516;28;20609;-68
2021/08/14 17:34:37;;;;;;;5.18;3.20;;;24.60;99.90;;;;;;5035601;28;20280;-68
2021/08/14 17:37:03;;;;;;;6.05;3.65;;;24.80;99.90;;;;;;5035577;28;20158;-69
2021/08/14 17:39:28;;;;;;;7.63;3.53;;;24.80;99.90;;;;;;5034279;28;20177;-68
2021/08/14 17:41:54;;;;;;;6.30;3.30;;;24.70;99.90;;;;;;5035389;28;20172;-68
2021/08/14 17:44:20;;;;;;;7.80;3.92;;;24.70;99.90;;;;;;5035348;28;20184;-69
2021/08/14 17:46:45;;;;;;;7.00;3.75;;;24.70;99.90;;;;;;5035259;28;20173;-69
2021/08/14 17:49:11;;;;;;;8.77;3.50;;;24.60;99.90;;;;;;5035234;28;20259;-69
2021/08/14 17:51:37;;;;;;;6.20;3.40;;;24.50;99.90;;;;;;5035057;28;20177;-68
2021/08/14 17:54:03;;;;;;;8.50;3.67;;;24.30;99.90;;;;;;5034843;28;20232;-69
2021/08/14 17:56:30;;;;;;;9.65;3.58;;;;;;;;;;5035117;28;20165;-69
2021/08/14 17:58:56;;;;;;;8.30;4.00;;;24.00;99.90;;;;;;5034966;28;20169;-68
2021/08/14 18:01:22;;;;;;;5.00;3.22;;;23.90;99.90;;;;;;5034978;28;20252;-69
2021/08/14 18:03:48;;;;;;;6.75;3.90;;;23.80;99.90;;;;;;5034634;28;20180;-68
2021/08/14 18:06:14;;;;;;;5.55;3.53;;;23.70;99.90;;;;;;5034526;28;20169;-69
2021/08/14 18:08:40;;;;;;;5.63;3.67;;;23.70;99.90;;;;;;5033962;28;20230;-69
2021/08/14 18:11:08;;;;;;;7.90;4.00;;;23.60;99.90;;;;;;5034543;28;20169;-68
2021/08/14 18:13:33;;;;;;;5.78;3.70;;;23.60;99.90;;;;;;5034668;28;20226;-69
2021/08/14 18:15:59;;;;;;;10.45;4.22;;;23.60;99.90;;;;;;5034665;28;20197;-68
2021/08/14 18:18:24;;;;;;;5.55;3.92;;;23.40;99.90;;;;;;5034656;28;20215;-69
2021/08/14 18:20:50;;;;;;;7.75;4.38;;;23.40;99.90;;;;;;5034659;28;20220;-68
2021/08/14 18:23:19;;;;;;;7.65;4.25;;;23.20;99.90;;;;;;5034513;28;20192;-68
2021/08/14 18:25:46;;;;;;;11.18;4.47;;;23.20;99.90;;;;;;5034523;28;20181;-68
2021/08/14 18:28:11;;;;;;;8.95;5.13;;;23.10;99.90;;;;;;5033271;28;20276;-68
2021/08/14 18:30:40;;;;;;;11.80;4.28;;;23.00;99.90;;;;;;5034534;28;20256;-68
2021/08/14 18:33:09;;;;;;;10.80;4.72;;;22.80;99.90;;;;;;5034446;28;20181;-68
2021/08/14 18:35:35;;;;;;;13.10;5.35;;;22.60;99.90;;;;;;5034200;28;20193;-68
2021/08/14 18:38:01;;;;;;;12.30;5.80;;;22.50;99.90;;;;;;5034243;28;20308;-68
2021/08/14 18:40:27;;;;;;;9.18;5.07;;;22.50;99.90;;;;;;5034352;28;20173;-67
2021/08/14 18:42:52;;;;;;;12.32;5.43;;;22.20;99.90;;;;;;5034299;28;20173;-66
2021/08/14 18:45:18;;;;;;;13.90;6.25;;;22.10;99.90;;;;;;5034243;28;20228;-66
2021/08/14 18:47:43;;;;;;;8.32;5.00;;;22.00;99.90;;;;;;5034141;28;20173;-66
2021/08/14 18:50:10;;;;;;;7.63;5.25;;;;;;;;;;5034053;28;20188;-66
